sensor_id;sensor_type;location;lat;lon;timestamp;pressure;altitude;pressure_sealevel;temperature
20058;BMP180;10189;49.546;7.906;2023-07-09T00:01:18;98443.00;;;19.40
20058;BMP180;10189;49.546;7.906;2023-07-09T00:03:46;98449.00;;;19.30
20058;BMP180;10189;49.546;7.906;2023-07-09T00:06:17;98455.00;;;19.30
20058;BMP180;10189;49.546;7.906;2023-07-09T00:08:46;98451.00;;;19.20
20058;BMP180;10189;49.546;7.906;2023-07-09T00:11:17;98439.00;;;19.20
20058;BMP180;10189;49.546;7.906;2023-07-09T00:13:43;98448.00;;;19.20
20058;BMP180;10189;49.546;7.906;2023-07-09T00:16:16;98453.00;;;19.20
20058;BMP180;10189;49.546;7.906;2023-07-09T00:18:44;98450.00;;;19.10
20058;BMP180;10189;49.546;7.906;2023-07-09T00:21:10;98450.00;;;19.10
20058;BMP180;10189;49.546;7.906;2023-07-09T00:23:36;98456.00;;;19.10
20058;BMP180;10189;49.546;7.906;2023-07-09T00:26:12;98455.00;;;19.10
20058;BMP180;10189;49.546;7.906;2023-07-09T00:28:43;98455.00;;;19.10
20058;BMP180;10189;49.546;7.906;2023-07-09T00:31:14;98461.00;;;19.10
20058;BMP180;10189;49.546;7.906;2023-07-09T00:33:42;98464.00;;;19.10
20058;BMP180;10189;49.546;7.906;2023-07-09T00:36:34;98462.00;;;19.20
20058;BMP180;10189;49.546;7.906;2023-07-09T00:39:01;98467.00;;;19.10
20058;BMP180;10189;49.546;7.906;2023-07-09T00:41:37;98464.00;;;19.10
20058;BMP180;10189;49.546;7.906;2023-07-09T00:44:30;98462.00;;;19.10
20058;BMP180;10189;49.546;7.906;2023-07-09T00:49:37;98458.00;;;19.10
20058;BMP180;10189;49.546;7.906;2023-07-09T00:52:39;98466.00;;;19.10
20058;BMP180;10189;49.546;7.906;2023-07-09T00:55:12;98461.00;;;19.10
20058;BMP180;10189;49.546;7.906;2023-07-09T00:57:41;98460.00;;;19.10
20058;BMP180;10189;49.546;7.906;2023-07-09T01:00:13;98469.00;;;19.10
20058;BMP180;10189;49.546;7.906;2023-07-09T01:02:47;98475.00;;;19.10
20058;BMP180;10189;49.546;7.906;2023-07-09T01:05:15;98469.00;;;19.10
20058;BMP180;10189;49.546;7.906;2023-07-09T01:07:43;98478.00;;;19.10
20058;BMP180;10189;49.546;7.906;2023-07-09T01:10:14;98475.00;;;19.10
20058;BMP180;10189;49.546;7.906;2023-07-09T01:12:40;98476.00;;;19.00
20058;BMP180;10189;49.546;7.906;2023-07-09T01:15:08;98476.00;;;19.00
20058;BMP180;10189;49.546;7.906;2023-07-09T01:17:34;98468.00;;;19.00
20058;BMP180;10189;49.546;7.906;2023-07-09T01:20:00;98469.00;;;19.00
20058;BMP180;10189;49.546;7.906;2023-07-09T01:22:26;98463.00;;;18.90
20058;BMP180;10189;49.546;7.906;2023-07-09T01:25:06;98469.00;;;18.90
20058;BMP180;10189;49.546;7.906;2023-07-09T01:27:41;98468.00;;;18.90
20058;BMP180;10189;49.546;7.906;2023-07-09T01:32:40;98470.00;;;18.90
20058;BMP180;10189;49.546;7.906;2023-07-09T01:35:13;98467.00;;;18.90
20058;BMP180;10189;49.546;7.906;2023-07-09T01:37:42;98471.00;;;18.90
20058;BMP180;10189;49.546;7.906;2023-07-09T01:40:13;98473.00;;;18.90
20058;BMP180;10189;49.546;7.906;2023-07-09T01:42:40;98467.00;;;19.00
20058;BMP180;10189;49.546;7.906;2023-07-09T01:45:08;98458.00;;;18.90
20058;BMP180;10189;49.546;7.906;2023-07-09T01:47:37;98465.00;;;18.90
20058;BMP180;10189;49.546;7.906;2023-07-09T01:50:05;98466.00;;;18.90
20058;BMP180;10189;49.546;7.906;2023-07-09T01:52:33;98461.00;;;18.80
20058;BMP180;10189;49.546;7.906;2023-07-09T01:55:01;98458.00;;;18.80
20058;BMP180;10189;49.546;7.906;2023-07-09T01:57:30;98467.00;;;18.70
20058;BMP180;10189;49.546;7.906;2023-07-09T02:00:04;98463.00;;;18.70
20058;BMP180;10189;49.546;7.906;2023-07-09T02:02:40;98469.00;;;18.70
20058;BMP180;10189;49.546;7.906;2023-07-09T02:05:12;98470.00;;;18.70
20058;BMP180;10189;49.546;7.906;2023-07-09T02:07:38;98464.00;;;18.60
20058;BMP180;10189;49.546;7.906;2023-07-09T02:10:06;98465.00;;;18.60
20058;BMP180;10189;49.546;7.906;2023-07-09T02:12:32;98468.00;;;18.70
20058;BMP180;10189;49.546;7.906;2023-07-09T02:14:58;98462.00;;;18.60
20058;BMP180;10189;49.546;7.906;2023-07-09T02:17:24;98464.00;;;18.60
20058;BMP180;10189;49.546;7.906;2023-07-09T02:19:51;98461.00;;;18.60
20058;BMP180;10189;49.546;7.906;2023-07-09T02:22:17;98459.00;;;18.60
20058;BMP180;10189;49.546;7.906;2023-07-09T02:24:45;98461.00;;;18.60
20058;BMP180;10189;49.546;7.906;2023-07-09T02:27:16;98456.00;;;18.50
20058;BMP180;10189;49.546;7.906;2023-07-09T02:29:42;98453.00;;;18.60
20058;BMP180;10189;49.546;7.906;2023-07-09T02:32:09;98461.00;;;18.50
20058;BMP180;10189;49.546;7.906;2023-07-09T02:34:35;98458.00;;;18.50
20058;BMP180;10189;49.546;7.906;2023-07-09T02:37:01;98452.00;;;18.50
20058;BMP180;10189;49.546;7.906;2023-07-09T02:39:27;98467.00;;;18.50
20058;BMP180;10189;49.546;7.906;2023-07-09T02:41:53;98464.00;;;18.50
20058;BMP180;10189;49.546;7.906;2023-07-09T02:44:20;98461.00;;;18.40
20058;BMP180;10189;49.546;7.906;2023-07-09T02:46:46;98475.00;;;18.40
20058;BMP180;10189;49.546;7.906;2023-07-09T02:49:13;98473.00;;;18.40
20058;BMP180;10189;49.546;7.906;2023-07-09T02:51:40;98477.00;;;18.40
20058;BMP180;10189;49.546;7.906;2023-07-09T02:54:07;98477.00;;;18.40
20058;BMP180;10189;49.546;7.906;2023-07-09T02:56:33;98478.00;;;18.40
20058;BMP180;10189;49.546;7.906;2023-07-09T02:58:59;98481.00;;;18.30
20058;BMP180;10189;49.546;7.906;2023-07-09T03:01:25;98480.00;;;18.30
20058;BMP180;10189;49.546;7.906;2023-07-09T03:03:57;98482.00;;;18.30
20058;BMP180;10189;49.546;7.906;2023-07-09T03:06:26;98477.00;;;18.20
20058;BMP180;10189;49.546;7.906;2023-07-09T03:08:52;98484.00;;;18.20
20058;BMP180;10189;49.546;7.906;2023-07-09T03:11:20;98486.00;;;18.30
20058;BMP180;10189;49.546;7.906;2023-07-09T03:13:48;98489.00;;;18.20
20058;BMP180;10189;49.546;7.906;2023-07-09T03:16:15;98490.00;;;18.20
20058;BMP180;10189;49.546;7.906;2023-07-09T03:18:42;98490.00;;;18.30
20058;BMP180;10189;49.546;7.906;2023-07-09T03:21:08;98490.00;;;18.30
20058;BMP180;10189;49.546;7.906;2023-07-09T03:23:34;98495.00;;;18.30
20058;BMP180;10189;49.546;7.906;2023-07-09T03:25:59;98494.00;;;18.30
20058;BMP180;10189;49.546;7.906;2023-07-09T03:28:26;98489.00;;;18.20
20058;BMP180;10189;49.546;7.906;2023-07-09T03:30:54;98488.00;;;18.20
20058;BMP180;10189;49.546;7.906;2023-07-09T03:33:21;98494.00;;;18.20
20058;BMP180;10189;49.546;7.906;2023-07-09T03:35:48;98495.00;;;18.30
20058;BMP180;10189;49.546;7.906;2023-07-09T03:38:13;98507.00;;;18.30
20058;BMP180;10189;49.546;7.906;2023-07-09T03:40:39;98502.00;;;18.30
20058;BMP180;10189;49.546;7.906;2023-07-09T03:43:06;98514.00;;;18.30
20058;BMP180;10189;49.546;7.906;2023-07-09T03:45:36;98501.00;;;18.30
20058;BMP180;10189;49.546;7.906;2023-07-09T03:48:03;98502.00;;;18.30
20058;BMP180;10189;49.546;7.906;2023-07-09T03:50:30;98503.00;;;18.30
20058;BMP180;10189;49.546;7.906;2023-07-09T03:52:56;98508.00;;;18.40
20058;BMP180;10189;49.546;7.906;2023-07-09T03:55:22;98500.00;;;18.40
20058;BMP180;10189;49.546;7.906;2023-07-09T03:57:48;98506.00;;;18.50
20058;BMP180;10189;49.546;7.906;2023-07-09T04:00:14;98508.00;;;18.40
20058;BMP180;10189;49.546;7.906;2023-07-09T04:02:43;98498.00;;;18.50
20058;BMP180;10189;49.546;7.906;2023-07-09T04:05:11;98503.00;;;18.60
20058;BMP180;10189;49.546;7.906;2023-07-09T04:07:39;98511.00;;;18.60
20058;BMP180;10189;49.546;7.906;2023-07-09T04:10:06;98506.00;;;18.70
20058;BMP180;10189;49.546;7.906;2023-07-09T04:12:32;98514.00;;;18.70
20058;BMP180;10189;49.546;7.906;2023-07-09T04:14:58;98514.00;;;18.70
20058;BMP180;10189;49.546;7.906;2023-07-09T04:17:24;98515.00;;;18.80
20058;BMP180;10189;49.546;7.906;2023-07-09T04:19:51;98512.00;;;18.90
20058;BMP180;10189;49.546;7.906;2023-07-09T04:22:17;98518.00;;;18.90
20058;BMP180;10189;49.546;7.906;2023-07-09T04:24:43;98518.00;;;18.90
20058;BMP180;10189;49.546;7.906;2023-07-09T04:27:10;98514.00;;;19.00
20058;BMP180;10189;49.546;7.906;2023-07-09T04:29:35;98517.00;;;19.10
20058;BMP180;10189;49.546;7.906;2023-07-09T04:32:05;98515.00;;;19.20
20058;BMP180;10189;49.546;7.906;2023-07-09T04:34:31;98504.00;;;19.40
20058;BMP180;10189;49.546;7.906;2023-07-09T04:36:57;98513.00;;;19.70
20058;BMP180;10189;49.546;7.906;2023-07-09T04:39:23;98519.00;;;19.80
20058;BMP180;10189;49.546;7.906;2023-07-09T04:41:49;98508.00;;;20.00
20058;BMP180;10189;49.546;7.906;2023-07-09T04:44:15;98518.00;;;20.20
20058;BMP180;10189;49.546;7.906;2023-07-09T04:46:41;98511.00;;;20.50
20058;BMP180;10189;49.546;7.906;2023-07-09T04:49:08;98511.00;;;20.70
20058;BMP180;10189;49.546;7.906;2023-07-09T04:51:33;98502.00;;;20.90
20058;BMP180;10189;49.546;7.906;2023-07-09T04:53:59;98507.00;;;21.10
20058;BMP180;10189;49.546;7.906;2023-07-09T04:56:30;98515.00;;;21.30
20058;BMP180;10189;49.546;7.906;2023-07-09T04:58:57;98505.00;;;21.50
20058;BMP180;10189;49.546;7.906;2023-07-09T05:01:22;98509.00;;;21.60
20058;BMP180;10189;49.546;7.906;2023-07-09T05:03:48;98508.00;;;21.60
20058;BMP180;10189;49.546;7.906;2023-07-09T05:06:15;98504.00;;;21.80
20058;BMP180;10189;49.546;7.906;2023-07-09T05:08:41;98503.00;;;21.80
20058;BMP180;10189;49.546;7.906;2023-07-09T05:11:09;98500.00;;;22.00
20058;BMP180;10189;49.546;7.906;2023-07-09T05:13:36;98506.00;;;22.00
20058;BMP180;10189;49.546;7.906;2023-07-09T05:16:02;98504.00;;;21.90
20058;BMP180;10189;49.546;7.906;2023-07-09T05:18:28;98501.00;;;21.90
20058;BMP180;10189;49.546;7.906;2023-07-09T05:20:55;98500.00;;;22.00
20058;BMP180;10189;49.546;7.906;2023-07-09T05:23:23;98502.00;;;22.10
20058;BMP180;10189;49.546;7.906;2023-07-09T05:25:58;98494.00;;;22.30
20058;BMP180;10189;49.546;7.906;2023-07-09T05:28:25;98510.00;;;22.20
20058;BMP180;10189;49.546;7.906;2023-07-09T05:30:51;98499.00;;;22.20
20058;BMP180;10189;49.546;7.906;2023-07-09T05:33:18;98503.00;;;22.30
20058;BMP180;10189;49.546;7.906;2023-07-09T05:35:45;98491.00;;;22.40
20058;BMP180;10189;49.546;7.906;2023-07-09T05:38:12;98499.00;;;22.50
20058;BMP180;10189;49.546;7.906;2023-07-09T05:40:39;98498.00;;;22.60
20058;BMP180;10189;49.546;7.906;2023-07-09T05:43:05;98501.00;;;22.70
20058;BMP180;10189;49.546;7.906;2023-07-09T05:45:31;98496.00;;;22.80
20058;BMP180;10189;49.546;7.906;2023-07-09T05:47:59;98494.00;;;22.80
20058;BMP180;10189;49.546;7.906;2023-07-09T05:50:26;98494.00;;;22.80
20058;BMP180;10189;49.546;7.906;2023-07-09T05:52:52;98503.00;;;22.90
20058;BMP180;10189;49.546;7.906;2023-07-09T05:55:18;98491.00;;;23.10
20058;BMP180;10189;49.546;7.906;2023-07-09T05:57:44;98502.00;;;23.20
20058;BMP180;10189;49.546;7.906;2023-07-09T06:00:10;98500.00;;;23.60
20058;BMP180;10189;49.546;7.906;2023-07-09T06:02:40;98510.00;;;23.90
20058;BMP180;10189;49.546;7.906;2023-07-09T06:05:06;98504.00;;;24.20
20058;BMP180;10189;49.546;7.906;2023-07-09T06:07:37;98502.00;;;24.20
20058;BMP180;10189;49.546;7.906;2023-07-09T06:10:08;98505.00;;;24.20
20058;BMP180;10189;49.546;7.906;2023-07-09T06:12:35;98502.00;;;24.30
20058;BMP180;10189;49.546;7.906;2023-07-09T06:15:01;98503.00;;;24.40
20058;BMP180;10189;49.546;7.906;2023-07-09T06:17:27;98508.00;;;24.40
20058;BMP180;10189;49.546;7.906;2023-07-09T06:19:53;98503.00;;;24.30
20058;BMP180;10189;49.546;7.906;2023-07-09T06:22:19;98510.00;;;24.60
20058;BMP180;10189;49.546;7.906;2023-07-09T06:24:45;98510.00;;;24.80
20058;BMP180;10189;49.546;7.906;2023-07-09T06:27:12;98508.00;;;25.20
20058;BMP180;10189;49.546;7.906;2023-07-09T06:29:38;98503.00;;;25.30
20058;BMP180;10189;49.546;7.906;2023-07-09T06:32:04;98506.00;;;25.20
20058;BMP180;10189;49.546;7.906;2023-07-09T06:34:30;98508.00;;;25.60
20058;BMP180;10189;49.546;7.906;2023-07-09T06:36:57;98512.00;;;25.90
20058;BMP180;10189;49.546;7.906;2023-07-09T06:39:23;98514.00;;;26.10
20058;BMP180;10189;49.546;7.906;2023-07-09T06:41:49;98510.00;;;26.40
20058;BMP180;10189;49.546;7.906;2023-07-09T06:44:53;98508.00;;;26.50
20058;BMP180;10189;49.546;7.906;2023-07-09T06:47:19;98511.00;;;26.90
20058;BMP180;10189;49.546;7.906;2023-07-09T06:49:45;98513.00;;;27.10
20058;BMP180;10189;49.546;7.906;2023-07-09T06:52:11;98520.00;;;27.40
20058;BMP180;10189;49.546;7.906;2023-07-09T06:54:37;98521.00;;;27.60
20058;BMP180;10189;49.546;7.906;2023-07-09T06:57:03;98511.00;;;27.70
20058;BMP180;10189;49.546;7.906;2023-07-09T06:59:29;98519.00;;;28.00
20058;BMP180;10189;49.546;7.906;2023-07-09T07:01:55;98522.00;;;28.00
20058;BMP180;10189;49.546;7.906;2023-07-09T07:04:20;98521.00;;;28.10
20058;BMP180;10189;49.546;7.906;2023-07-09T07:06:47;98518.00;;;28.30
20058;BMP180;10189;49.546;7.906;2023-07-09T07:09:12;98509.00;;;28.10
20058;BMP180;10189;49.546;7.906;2023-07-09T07:11:38;98511.00;;;28.00
20058;BMP180;10189;49.546;7.906;2023-07-09T07:14:04;98517.00;;;28.00
20058;BMP180;10189;49.546;7.906;2023-07-09T07:16:30;98509.00;;;28.20
20058;BMP180;10189;49.546;7.906;2023-07-09T07:18:56;98510.00;;;28.30
20058;BMP180;10189;49.546;7.906;2023-07-09T07:21:21;98503.00;;;28.60
20058;BMP180;10189;49.546;7.906;2023-07-09T07:23:47;98503.00;;;28.70
20058;BMP180;10189;49.546;7.906;2023-07-09T07:26:13;98490.00;;;29.00
20058;BMP180;10189;49.546;7.906;2023-07-09T07:28:39;98493.00;;;29.30
20058;BMP180;10189;49.546;7.906;2023-07-09T07:31:08;98496.00;;;29.60
20058;BMP180;10189;49.546;7.906;2023-07-09T07:33:35;98498.00;;;29.90
20058;BMP180;10189;49.546;7.906;2023-07-09T07:36:05;98495.00;;;30.00
20058;BMP180;10189;49.546;7.906;2023-07-09T07:38:31;98497.00;;;30.30
20058;BMP180;10189;49.546;7.906;2023-07-09T07:40:57;98495.00;;;30.60
20058;BMP180;10189;49.546;7.906;2023-07-09T07:43:23;98484.00;;;30.90
20058;BMP180;10189;49.546;7.906;2023-07-09T07:45:48;98493.00;;;31.20
20058;BMP180;10189;49.546;7.906;2023-07-09T07:48:14;98498.00;;;31.30
20058;BMP180;10189;49.546;7.906;2023-07-09T07:50:40;98490.00;;;31.30
20058;BMP180;10189;49.546;7.906;2023-07-09T07:53:07;98493.00;;;31.50
20058;BMP180;10189;49.546;7.906;2023-07-09T07:55:34;98494.00;;;31.60
20058;BMP180;10189;49.546;7.906;2023-07-09T07:58:02;98497.00;;;31.60
20058;BMP180;10189;49.546;7.906;2023-07-09T08:00:30;98497.00;;;31.80
20058;BMP180;10189;49.546;7.906;2023-07-09T08:02:56;98500.00;;;32.00
20058;BMP180;10189;49.546;7.906;2023-07-09T08:05:22;98491.00;;;32.10
20058;BMP180;10189;49.546;7.906;2023-07-09T08:07:49;98504.00;;;32.10
20058;BMP180;10189;49.546;7.906;2023-07-09T08:10:15;98502.00;;;32.30
20058;BMP180;10189;49.546;7.906;2023-07-09T08:12:41;98499.00;;;32.60
20058;BMP180;10189;49.546;7.906;2023-07-09T08:15:08;98495.00;;;32.30
20058;BMP180;10189;49.546;7.906;2023-07-09T08:17:34;98503.00;;;32.60
20058;BMP180;10189;49.546;7.906;2023-07-09T08:20:00;98493.00;;;32.60
20058;BMP180;10189;49.546;7.906;2023-07-09T08:22:26;98501.00;;;32.90
20058;BMP180;10189;49.546;7.906;2023-07-09T08:24:52;98499.00;;;33.00
20058;BMP180;10189;49.546;7.906;2023-07-09T08:27:19;98506.00;;;33.00
20058;BMP180;10189;49.546;7.906;2023-07-09T08:29:46;98497.00;;;33.10
20058;BMP180;10189;49.546;7.906;2023-07-09T08:32:12;98498.00;;;33.00
20058;BMP180;10189;49.546;7.906;2023-07-09T08:34:40;98493.00;;;33.20
20058;BMP180;10189;49.546;7.906;2023-07-09T08:37:08;98501.00;;;33.10
20058;BMP180;10189;49.546;7.906;2023-07-09T08:39:35;98494.00;;;33.10
20058;BMP180;10189;49.546;7.906;2023-07-09T08:42:16;98494.00;;;33.20
20058;BMP180;10189;49.546;7.906;2023-07-09T08:50:11;98503.00;;;33.20
20058;BMP180;10189;49.546;7.906;2023-07-09T08:52:43;98501.00;;;33.40
20058;BMP180;10189;49.546;7.906;2023-07-09T08:55:14;98503.00;;;33.40
20058;BMP180;10189;49.546;7.906;2023-07-09T08:57:45;98491.00;;;33.00
20058;BMP180;10189;49.546;7.906;2023-07-09T09:00:46;98490.00;;;33.40
20058;BMP180;10189;49.546;7.906;2023-07-09T09:03:40;98493.00;;;33.60
20058;BMP180;10189;49.546;7.906;2023-07-09T09:06:19;98495.00;;;33.80
20058;BMP180;10189;49.546;7.906;2023-07-09T09:09:38;98498.00;;;33.60
20058;BMP180;10189;49.546;7.906;2023-07-09T09:12:19;98504.00;;;33.90
20058;BMP180;10189;49.546;7.906;2023-07-09T09:14:58;98498.00;;;34.00
20058;BMP180;10189;49.546;7.906;2023-07-09T09:17:26;98495.00;;;34.10
20058;BMP180;10189;49.546;7.906;2023-07-09T09:20:20;98491.00;;;34.10
20058;BMP180;10189;49.546;7.906;2023-07-09T09:25:30;98502.00;;;34.30
20058;BMP180;10189;49.546;7.906;2023-07-09T09:27:56;98509.00;;;34.40
20058;BMP180;10189;49.546;7.906;2023-07-09T09:30:24;98490.00;;;34.20
20058;BMP180;10189;49.546;7.906;2023-07-09T09:37:56;98488.00;;;34.00
20058;BMP180;10189;49.546;7.906;2023-07-09T09:40:25;98488.00;;;34.10
20058;BMP180;10189;49.546;7.906;2023-07-09T09:42:55;98484.00;;;33.50
20058;BMP180;10189;49.546;7.906;2023-07-09T09:45:37;98472.00;;;33.70
20058;BMP180;10189;49.546;7.906;2023-07-09T09:48:18;98473.00;;;33.70
20058;BMP180;10189;49.546;7.906;2023-07-09T09:50:47;98475.00;;;33.50
20058;BMP180;10189;49.546;7.906;2023-07-09T09:53:26;98468.00;;;33.50
20058;BMP180;10189;49.546;7.906;2023-07-09T09:55:53;98470.00;;;33.80
20058;BMP180;10189;49.546;7.906;2023-07-09T09:58:28;98472.00;;;33.30
20058;BMP180;10189;49.546;7.906;2023-07-09T10:00:57;98473.00;;;33.30
20058;BMP180;10189;49.546;7.906;2023-07-09T10:03:34;98474.00;;;33.50
20058;BMP180;10189;49.546;7.906;2023-07-09T10:06:19;98466.00;;;33.40
20058;BMP180;10189;49.546;7.906;2023-07-09T10:12:00;98463.00;;;33.20
20058;BMP180;10189;49.546;7.906;2023-07-09T10:17:22;98461.00;;;33.20
20058;BMP180;10189;49.546;7.906;2023-07-09T10:19:56;98468.00;;;33.60
20058;BMP180;10189;49.546;7.906;2023-07-09T10:22:57;98453.00;;;34.00
20058;BMP180;10189;49.546;7.906;2023-07-09T10:25:51;98449.00;;;33.70
20058;BMP180;10189;49.546;7.906;2023-07-09T10:31:28;98459.00;;;33.90
20058;BMP180;10189;49.546;7.906;2023-07-09T10:34:34;98454.00;;;34.10
20058;BMP180;10189;49.546;7.906;2023-07-09T10:40:14;98454.00;;;33.60
20058;BMP180;10189;49.546;7.906;2023-07-09T10:42:52;98447.00;;;33.80
20058;BMP180;10189;49.546;7.906;2023-07-09T10:45:45;98447.00;;;34.30
20058;BMP180;10189;49.546;7.906;2023-07-09T10:48:24;98440.00;;;34.70
20058;BMP180;10189;49.546;7.906;2023-07-09T10:50:53;98438.00;;;34.40
20058;BMP180;10189;49.546;7.906;2023-07-09T10:53:45;98436.00;;;34.10
20058;BMP180;10189;49.546;7.906;2023-07-09T10:56:20;98438.00;;;34.10
20058;BMP180;10189;49.546;7.906;2023-07-09T10:59:21;98435.00;;;34.30
20058;BMP180;10189;49.546;7.906;2023-07-09T11:01:58;98439.00;;;34.40
20058;BMP180;10189;49.546;7.906;2023-07-09T11:04:54;98443.00;;;34.80
20058;BMP180;10189;49.546;7.906;2023-07-09T11:08:02;98442.00;;;35.00
20058;BMP180;10189;49.546;7.906;2023-07-09T11:10:40;98448.00;;;35.30
20058;BMP180;10189;49.546;7.906;2023-07-09T11:13:18;98435.00;;;35.60
20058;BMP180;10189;49.546;7.906;2023-07-09T11:15:49;98438.00;;;35.80
20058;BMP180;10189;49.546;7.906;2023-07-09T11:18:26;98439.00;;;36.00
20058;BMP180;10189;49.546;7.906;2023-07-09T11:21:14;98443.00;;;36.00
20058;BMP180;10189;49.546;7.906;2023-07-09T11:23:50;98438.00;;;35.60
20058;BMP180;10189;49.546;7.906;2023-07-09T11:26:34;98438.00;;;35.30
20058;BMP180;10189;49.546;7.906;2023-07-09T11:31:40;98444.00;;;35.70
20058;BMP180;10189;49.546;7.906;2023-07-09T11:34:18;98432.00;;;35.70
20058;BMP180;10189;49.546;7.906;2023-07-09T11:36:51;98428.00;;;35.70
20058;BMP180;10189;49.546;7.906;2023-07-09T11:39:29;98434.00;;;35.90
20058;BMP180;10189;49.546;7.906;2023-07-09T11:41:57;98437.00;;;36.30
20058;BMP180;10189;49.546;7.906;2023-07-09T11:44:29;98435.00;;;36.00
20058;BMP180;10189;49.546;7.906;2023-07-09T11:47:19;98440.00;;;36.40
20058;BMP180;10189;49.546;7.906;2023-07-09T11:49:58;98428.00;;;35.90
20058;BMP180;10189;49.546;7.906;2023-07-09T11:52:34;98427.00;;;35.80
20058;BMP180;10189;49.546;7.906;2023-07-09T11:58:03;98424.00;;;35.60
20058;BMP180;10189;49.546;7.906;2023-07-09T12:00:49;98434.00;;;35.80
20058;BMP180;10189;49.546;7.906;2023-07-09T12:03:21;98427.00;;;36.00
20058;BMP180;10189;49.546;7.906;2023-07-09T12:06:01;98422.00;;;35.70
20058;BMP180;10189;49.546;7.906;2023-07-09T12:08:38;98412.00;;;36.00
20058;BMP180;10189;49.546;7.906;2023-07-09T12:11:06;98408.00;;;36.40
20058;BMP180;10189;49.546;7.906;2023-07-09T12:13:39;98412.00;;;36.80
20058;BMP180;10189;49.546;7.906;2023-07-09T12:16:29;98408.00;;;37.40
20058;BMP180;10189;49.546;7.906;2023-07-09T12:18:55;98411.00;;;36.50
20058;BMP180;10189;49.546;7.906;2023-07-09T12:21:23;98399.00;;;36.20
20058;BMP180;10189;49.546;7.906;2023-07-09T12:23:50;98399.00;;;36.00
20058;BMP180;10189;49.546;7.906;2023-07-09T12:26:19;98403.00;;;36.40
20058;BMP180;10189;49.546;7.906;2023-07-09T12:28:57;98396.00;;;36.50
20058;BMP180;10189;49.546;7.906;2023-07-09T12:31:30;98395.00;;;36.80
20058;BMP180;10189;49.546;7.906;2023-07-09T12:33:58;98396.00;;;36.70
20058;BMP180;10189;49.546;7.906;2023-07-09T12:36:26;98395.00;;;36.50
20058;BMP180;10189;49.546;7.906;2023-07-09T12:39:00;98388.00;;;36.30
20058;BMP180;10189;49.546;7.906;2023-07-09T12:41:35;98391.00;;;36.30
20058;BMP180;10189;49.546;7.906;2023-07-09T12:44:02;98378.00;;;36.20
20058;BMP180;10189;49.546;7.906;2023-07-09T12:46:29;98376.00;;;36.30
20058;BMP180;10189;49.546;7.906;2023-07-09T12:48:55;98377.00;;;36.20
20058;BMP180;10189;49.546;7.906;2023-07-09T12:51:25;98375.00;;;36.30
20058;BMP180;10189;49.546;7.906;2023-07-09T12:54:17;98371.00;;;36.50
20058;BMP180;10189;49.546;7.906;2023-07-09T12:56:45;98371.00;;;36.90
20058;BMP180;10189;49.546;7.906;2023-07-09T12:59:24;98372.00;;;36.80
20058;BMP180;10189;49.546;7.906;2023-07-09T13:02:06;98372.00;;;36.90
20058;BMP180;10189;49.546;7.906;2023-07-09T13:04:38;98358.00;;;36.60
20058;BMP180;10189;49.546;7.906;2023-07-09T13:07:18;98369.00;;;36.90
20058;BMP180;10189;49.546;7.906;2023-07-09T13:09:52;98381.00;;;37.10
20058;BMP180;10189;49.546;7.906;2023-07-09T13:12:21;98369.00;;;36.90
20058;BMP180;10189;49.546;7.906;2023-07-09T13:14:54;98362.00;;;36.60
20058;BMP180;10189;49.546;7.906;2023-07-09T13:17:20;98361.00;;;36.60
20058;BMP180;10189;49.546;7.906;2023-07-09T13:19:46;98365.00;;;37.10
20058;BMP180;10189;49.546;7.906;2023-07-09T13:22:18;98362.00;;;37.80
20058;BMP180;10189;49.546;7.906;2023-07-09T13:24:45;98362.00;;;38.20
20058;BMP180;10189;49.546;7.906;2023-07-09T13:27:13;98364.00;;;38.00
20058;BMP180;10189;49.546;7.906;2023-07-09T13:29:40;98357.00;;;38.30
20058;BMP180;10189;49.546;7.906;2023-07-09T13:32:12;98379.00;;;38.50
20058;BMP180;10189;49.546;7.906;2023-07-09T13:34:40;98362.00;;;38.50
20058;BMP180;10189;49.546;7.906;2023-07-09T13:37:14;98366.00;;;38.40
20058;BMP180;10189;49.546;7.906;2023-07-09T13:39:41;98356.00;;;38.10
20058;BMP180;10189;49.546;7.906;2023-07-09T13:42:14;98365.00;;;37.80
20058;BMP180;10189;49.546;7.906;2023-07-09T13:44:44;98356.00;;;37.40
20058;BMP180;10189;49.546;7.906;2023-07-09T13:47:16;98349.00;;;37.40
20058;BMP180;10189;49.546;7.906;2023-07-09T13:49:45;98349.00;;;37.20
20058;BMP180;10189;49.546;7.906;2023-07-09T13:52:18;98347.00;;;36.80
20058;BMP180;10189;49.546;7.906;2023-07-09T13:54:45;98341.00;;;37.00
20058;BMP180;10189;49.546;7.906;2023-07-09T13:57:20;98337.00;;;37.30
20058;BMP180;10189;49.546;7.906;2023-07-09T13:59:48;98328.00;;;37.30
20058;BMP180;10189;49.546;7.906;2023-07-09T14:02:24;98329.00;;;37.70
20058;BMP180;10189;49.546;7.906;2023-07-09T14:04:53;98337.00;;;38.10
20058;BMP180;10189;49.546;7.906;2023-07-09T14:07:37;98336.00;;;38.50
20058;BMP180;10189;49.546;7.906;2023-07-09T14:10:12;98336.00;;;38.30
20058;BMP180;10189;49.546;7.906;2023-07-09T14:12:43;98341.00;;;37.80
20058;BMP180;10189;49.546;7.906;2023-07-09T14:15:20;98344.00;;;37.60
20058;BMP180;10189;49.546;7.906;2023-07-09T14:17:46;98336.00;;;37.60
20058;BMP180;10189;49.546;7.906;2023-07-09T14:20:17;98335.00;;;37.40
20058;BMP180;10189;49.546;7.906;2023-07-09T14:22:44;98340.00;;;37.50
20058;BMP180;10189;49.546;7.906;2023-07-09T14:25:21;98335.00;;;37.60
20058;BMP180;10189;49.546;7.906;2023-07-09T14:27:50;98332.00;;;37.50
20058;BMP180;10189;49.546;7.906;2023-07-09T14:30:20;98334.00;;;37.50
20058;BMP180;10189;49.546;7.906;2023-07-09T14:32:48;98333.00;;;37.60
20058;BMP180;10189;49.546;7.906;2023-07-09T14:35:21;98334.00;;;37.40
20058;BMP180;10189;49.546;7.906;2023-07-09T14:37:52;98328.00;;;37.30
20058;BMP180;10189;49.546;7.906;2023-07-09T14:40:20;98334.00;;;37.00
20058;BMP180;10189;49.546;7.906;2023-07-09T14:42:48;98335.00;;;36.80
20058;BMP180;10189;49.546;7.906;2023-07-09T14:45:24;98322.00;;;36.70
20058;BMP180;10189;49.546;7.906;2023-07-09T14:47:52;98331.00;;;36.40
20058;BMP180;10189;49.546;7.906;2023-07-09T14:50:19;98331.00;;;36.60
20058;BMP180;10189;49.546;7.906;2023-07-09T14:52:47;98338.00;;;36.40
20058;BMP180;10189;49.546;7.906;2023-07-09T14:55:18;98334.00;;;36.60
20058;BMP180;10189;49.546;7.906;2023-07-09T14:57:45;98336.00;;;36.50
20058;BMP180;10189;49.546;7.906;2023-07-09T15:00:18;98338.00;;;36.50
20058;BMP180;10189;49.546;7.906;2023-07-09T15:02:48;98340.00;;;36.70
20058;BMP180;10189;49.546;7.906;2023-07-09T15:05:24;98343.00;;;36.30